createdAt,value
2019-05-25T00:00:23.441Z,60.00
2019-05-25T00:03:25.010Z,60.30
2019-05-25T00:06:26.486Z,60.50
2019-05-25T00:09:28.030Z,60.90
2019-05-25T00:12:29.566Z,61.30
2019-05-25T00:15:31.079Z,61.60
2019-05-25T00:18:32.605Z,61.70
2019-05-25T00:21:34.137Z,61.80
2019-05-25T00:24:35.646Z,61.90
2019-05-25T00:27:37.259Z,62.00
2019-05-25T00:30:38.761Z,62.20
2019-05-25T00:33:40.358Z,62.30
2019-05-25T00:36:41.928Z,62.70
2019-05-25T00:39:44.613Z,63.10
2019-05-25T00:42:46.139Z,63.90
2019-05-25T00:45:47.692Z,64.30
2019-05-25T00:48:49.265Z,64.50
2019-05-25T00:51:50.793Z,64.50
2019-05-25T00:54:52.325Z,65.30
2019-05-25T00:57:53.921Z,65.50
2019-05-25T01:00:55.508Z,65.80
2019-05-25T01:03:57.226Z,65.70
2019-05-25T01:06:58.798Z,66.30
2019-05-25T01:10:00.321Z,66.60
2019-05-25T01:13:01.961Z,66.60
2019-05-25T01:16:03.518Z,66.40
2019-05-25T01:19:05.152Z,66.80
2019-05-25T01:22:06.688Z,66.50
2019-05-25T01:25:08.846Z,66.20
2019-05-25T01:28:10.393Z,66.30
2019-05-25T01:31:12.002Z,66.10
2019-05-25T01:34:13.544Z,66.00
2019-05-25T01:37:15.078Z,66.10
2019-05-25T01:40:16.812Z,66.30
2019-05-25T01:43:18.307Z,66.50
2019-05-25T01:46:19.833Z,66.80
2019-05-25T01:49:21.402Z,66.60
2019-05-25T01:52:22.944Z,66.40
2019-05-25T01:55:24.494Z,66.60
2019-05-25T01:58:26.036Z,66.60
2019-05-25T02:01:27.718Z,66.70
2019-05-25T02:04:29.303Z,66.80
2019-05-25T02:07:30.929Z,66.90
2019-05-25T02:10:32.433Z,67.00
2019-05-25T02:13:34.040Z,67.50
2019-05-25T02:16:35.597Z,68.30
2019-05-25T02:19:37.184Z,69.00
2019-05-25T02:22:38.669Z,68.90
2019-05-25T02:25:40.206Z,69.50
2019-05-25T02:28:41.718Z,70.00
2019-05-25T02:31:43.281Z,70.30
2019-05-25T02:34:44.783Z,70.30
2019-05-25T02:37:46.325Z,70.00
2019-05-25T02:40:47.865Z,70.40
2019-05-25T02:43:49.413Z,70.30
2019-05-25T02:46:50.914Z,70.30
2019-05-25T02:49:52.486Z,70.00
2019-05-25T02:52:54.062Z,69.70
2019-05-25T02:55:55.580Z,69.50
2019-05-25T02:58:57.212Z,69.80
2019-05-25T03:01:58.766Z,70.20
2019-05-25T03:05:00.291Z,70.00
2019-05-25T03:08:01.825Z,70.00
2019-05-25T03:11:03.551Z,69.80
2019-05-25T03:14:05.816Z,69.70
2019-05-25T03:17:07.415Z,69.80
2019-05-25T03:20:09.120Z,70.10
2019-05-25T03:23:10.689Z,70.10
2019-05-25T03:26:12.195Z,69.90
2019-05-25T03:29:14.271Z,69.90
2019-05-25T03:32:15.835Z,70.10
2019-05-25T03:35:17.459Z,70.10
2019-05-25T03:38:19.040Z,70.00
2019-05-25T03:41:20.547Z,70.00
2019-05-25T03:44:22.089Z,70.00
2019-05-25T03:47:23.657Z,70.20
2019-05-25T03:50:26.185Z,70.30
2019-05-25T03:53:27.792Z,70.30
2019-05-25T03:56:29.307Z,70.70
2019-05-25T03:59:30.936Z,70.90
2019-05-25T04:02:32.580Z,71.10
2019-05-25T04:05:34.119Z,71.00
2019-05-25T04:08:35.671Z,71.30
2019-05-25T04:11:37.194Z,71.60
2019-05-25T04:14:38.712Z,71.90
2019-05-25T04:17:40.324Z,72.00
2019-05-25T04:20:41.885Z,72.20
2019-05-25T04:23:43.432Z,72.00
2019-05-25T04:26:44.969Z,71.90
2019-05-25T04:29:46.579Z,71.70
2019-05-25T04:32:48.140Z,71.60
2019-05-25T04:35:49.671Z,71.60
2019-05-25T04:38:51.268Z,71.50
2019-05-25T04:41:52.802Z,71.60
2019-05-25T04:44:54.345Z,71.70
2019-05-25T04:47:55.940Z,72.00
2019-05-25T04:50:57.511Z,71.90
2019-05-25T04:53:59.092Z,71.30
2019-05-25T04:57:00.649Z,71.60
2019-05-25T05:00:02.234Z,71.60
2019-05-25T05:03:03.877Z,71.30
2019-05-25T05:06:05.544Z,71.40
2019-05-25T05:09:08.669Z,71.40
2019-05-25T05:12:10.238Z,71.00
2019-05-25T05:15:12.110Z,70.70
2019-05-25T05:18:13.675Z,70.70
2019-05-25T05:21:15.229Z,70.60
2019-05-25T05:24:16.740Z,70.70
2019-05-25T05:27:18.341Z,70.90
2019-05-25T05:30:31.269Z,70.80
2019-05-25T05:33:32.857Z,70.60
2019-05-25T05:36:35.971Z,70.50
2019-05-25T05:39:37.562Z,70.20
2019-05-25T05:42:40.304Z,70.10
2019-05-25T05:45:43.655Z,70.20
2019-05-25T05:48:50.685Z,70.30
2019-05-25T05:51:52.358Z,70.50
2019-05-25T05:54:55.135Z,70.40
2019-05-25T05:57:56.661Z,70.50
2019-05-25T06:00:58.175Z,70.60
2019-05-25T06:03:59.720Z,70.50
2019-05-25T06:07:01.297Z,70.50
2019-05-25T06:10:02.915Z,70.60
2019-05-25T06:13:04.556Z,70.50
2019-05-25T06:16:06.119Z,70.90
2019-05-25T06:19:07.629Z,70.90
2019-05-25T06:22:09.205Z,70.60
2019-05-25T06:25:11.032Z,70.20
2019-05-25T06:28:12.650Z,69.30
2019-05-25T06:31:14.205Z,68.80
2019-05-25T06:34:15.761Z,68.30
2019-05-25T06:37:17.292Z,67.60
2019-05-25T06:40:19.071Z,67.00
2019-05-25T06:43:20.632Z,66.70
2019-05-25T06:46:22.196Z,66.50
2019-05-25T06:49:23.745Z,66.30
2019-05-25T06:52:25.286Z,66.70
2019-05-25T06:55:26.824Z,65.90
2019-05-25T06:58:29.451Z,65.60
2019-05-25T07:01:30.982Z,65.40
2019-05-25T07:04:32.538Z,65.10
2019-05-25T07:07:34.091Z,64.50
2019-05-25T07:10:35.711Z,64.20
2019-05-25T07:13:37.314Z,63.70
2019-05-25T07:16:38.841Z,63.50
2019-05-25T07:19:40.396Z,63.30
2019-05-25T07:22:41.940Z,63.40
2019-05-25T07:25:43.504Z,63.30
2019-05-25T07:28:45.044Z,63.30
2019-05-25T07:31:46.671Z,63.30
2019-05-25T07:34:49.239Z,63.30
2019-05-25T07:37:50.807Z,63.30
2019-05-25T07:40:52.357Z,63.30
2019-05-25T07:43:53.909Z,63.30
2019-05-25T07:46:55.443Z,63.30
2019-05-25T07:49:57.007Z,63.00
2019-05-25T07:52:58.585Z,62.30
2019-05-25T07:56:00.116Z,61.50
2019-05-25T07:59:01.648Z,61.30
2019-05-25T08:02:03.276Z,61.00
2019-05-25T08:05:05.196Z,60.90
2019-05-25T08:08:06.851Z,60.90
2019-05-25T08:11:08.391Z,61.40
2019-05-25T08:14:09.924Z,61.40
2019-05-25T08:17:11.471Z,61.00
2019-05-25T08:20:13.137Z,60.40
2019-05-25T08:23:14.756Z,60.30
2019-05-25T08:26:16.316Z,60.20
2019-05-25T08:29:17.872Z,60.80
2019-05-25T08:32:19.431Z,61.10
2019-05-25T08:35:20.977Z,60.90
2019-05-25T08:38:22.508Z,60.50
2019-05-25T08:41:24.071Z,60.40
2019-05-25T08:44:25.587Z,59.90
2019-05-25T08:47:27.112Z,59.90
2019-05-25T08:50:37.947Z,59.90
2019-05-25T08:53:41.309Z,59.90
2019-05-25T08:56:35.165Z,59.10
2019-05-25T08:59:36.856Z,58.80
2019-05-25T09:02:38.494Z,59.30
2019-05-25T09:05:40.093Z,58.10
2019-05-25T09:08:41.641Z,57.70
2019-05-25T09:11:43.222Z,57.40
2019-05-25T09:14:44.774Z,56.80
2019-05-25T09:17:46.312Z,56.00
2019-05-25T09:20:47.874Z,56.30
2019-05-25T09:23:49.458Z,56.30
2019-05-25T09:26:50.998Z,56.20
2019-05-25T09:29:52.612Z,55.60
2019-05-25T09:32:55.224Z,55.70
2019-05-25T09:35:56.718Z,55.40
2019-05-25T09:38:58.282Z,55.20
2019-05-25T09:41:59.898Z,54.80
2019-05-25T09:45:01.580Z,54.90
2019-05-25T09:48:03.200Z,54.70
2019-05-25T09:51:04.817Z,54.70
2019-05-25T09:54:06.492Z,54.70
2019-05-25T09:57:08.089Z,54.30
2019-05-25T10:00:11.372Z,54.20
2019-05-25T10:03:12.961Z,53.70
2019-05-25T10:06:14.534Z,53.60
2019-05-25T10:09:16.107Z,53.30
2019-05-25T10:12:17.581Z,53.60
2019-05-25T10:15:19.106Z,53.60
2019-05-25T10:18:20.622Z,53.30
2019-05-25T10:21:22.174Z,51.60
2019-05-25T10:24:23.730Z,51.50
2019-05-25T10:27:26.420Z,50.80
2019-05-25T10:30:27.950Z,50.60
2019-05-25T10:33:29.595Z,50.10
2019-05-25T10:36:31.134Z,50.20
2019-05-25T10:39:32.642Z,50.80
2019-05-25T10:42:34.162Z,51.00
2019-05-25T10:45:35.704Z,51.10
2019-05-25T10:48:37.301Z,51.20
2019-05-25T10:51:38.839Z,50.30
2019-05-25T10:54:40.406Z,50.30
2019-05-25T10:57:41.888Z,50.20
2019-05-25T11:00:43.438Z,50.60
2019-05-25T11:03:45.056Z,51.60
2019-05-25T11:06:46.601Z,51.10
2019-05-25T11:09:48.165Z,50.80
2019-05-25T11:12:49.737Z,50.20
2019-05-25T11:15:52.230Z,50.00
2019-05-25T11:18:53.779Z,50.20
2019-05-25T11:21:55.331Z,50.20
2019-05-25T11:24:56.869Z,49.40
2019-05-25T11:27:59.475Z,49.90
2019-05-25T11:31:00.993Z,49.00
2019-05-25T11:34:03.619Z,49.10
2019-05-25T11:37:05.137Z,49.30
2019-05-25T11:40:07.689Z,49.00
2019-05-25T11:43:09.292Z,47.90
2019-05-25T11:46:10.835Z,48.40
2019-05-25T11:49:22.202Z,49.50
2019-05-25T11:52:15.650Z,49.50
2019-05-25T11:55:18.856Z,49.60
2019-05-25T11:58:20.436Z,49.40
2019-05-25T12:01:22.074Z,48.40
2019-05-25T12:04:23.568Z,48.30
2019-05-25T12:07:25.118Z,47.80
2019-05-25T12:10:26.640Z,48.20
2019-05-25T12:13:31.864Z,47.90
2019-05-25T12:16:32.426Z,47.40
2019-05-25T12:19:33.968Z,47.30
2019-05-25T12:22:35.578Z,46.70
2019-05-25T12:25:37.124Z,46.90
2019-05-25T12:28:38.876Z,47.10
2019-05-25T12:31:40.473Z,46.30
2019-05-25T12:34:42.037Z,45.90
2019-05-25T12:37:43.577Z,46.50
2019-05-25T12:40:53.683Z,47.50
2019-05-25T12:43:48.830Z,48.00
2019-05-25T12:46:50.392Z,47.80
2019-05-25T12:49:51.974Z,47.60
2019-05-25T12:52:54.482Z,47.70
2019-05-25T12:55:55.982Z,47.90
2019-05-25T12:58:57.566Z,48.00
2019-05-25T13:01:59.140Z,47.90
2019-05-25T13:05:01.550Z,47.80
2019-05-25T13:08:04.143Z,47.20
2019-05-25T13:11:09.400Z,47.20
2019-05-25T13:14:14.896Z,47.30
2019-05-25T13:17:15.595Z,47.50
2019-05-25T13:20:18.032Z,47.40
2019-05-25T13:23:19.609Z,46.50
2019-05-25T13:26:21.163Z,46.30
2019-05-25T13:29:22.729Z,46.90
2019-05-25T13:32:24.266Z,47.60
2019-05-25T13:35:25.862Z,47.00
2019-05-25T13:38:27.480Z,47.20
2019-05-25T13:41:29.013Z,47.30
2019-05-25T13:44:30.572Z,46.80
2019-05-25T13:47:32.080Z,47.20
2019-05-25T13:50:33.665Z,47.40
2019-05-25T13:53:35.278Z,47.10
2019-05-25T13:56:36.795Z,46.90
2019-05-25T13:59:38.338Z,46.50
2019-05-25T14:02:39.931Z,47.00
2019-05-25T14:05:41.489Z,48.00
2019-05-25T14:08:43.050Z,48.30
2019-05-25T14:11:44.666Z,48.80
2019-05-25T14:14:46.211Z,49.10
2019-05-25T14:17:47.789Z,48.80
2019-05-25T14:20:49.429Z,49.00
2019-05-25T14:23:51.021Z,49.00
2019-05-25T14:26:53.707Z,48.90
2019-05-25T14:29:55.262Z,48.50
2019-05-25T14:32:56.805Z,48.40
2019-05-25T14:35:58.347Z,48.40
2019-05-25T14:38:59.898Z,48.70
2019-05-25T14:42:01.422Z,48.70
2019-05-25T14:45:02.925Z,48.40
2019-05-25T14:48:04.502Z,47.90
2019-05-25T14:51:06.041Z,47.70
2019-05-25T14:54:07.657Z,47.30
2019-05-25T14:57:09.123Z,47.20
2019-05-25T15:00:13.404Z,46.80
2019-05-25T15:03:14.994Z,46.10
2019-05-25T15:06:20.723Z,45.70
2019-05-25T15:09:19.888Z,45.50
2019-05-25T15:12:21.435Z,44.60
2019-05-25T15:15:22.994Z,43.80
2019-05-25T15:18:24.548Z,42.90
2019-05-25T15:21:26.641Z,42.80
2019-05-25T15:24:28.495Z,42.30
2019-05-25T15:27:31.148Z,41.60
2019-05-25T15:30:32.779Z,41.80
2019-05-25T15:33:34.366Z,41.70
2019-05-25T15:36:35.942Z,42.50
2019-05-25T15:39:37.558Z,42.20
2019-05-25T15:42:39.121Z,41.70
2019-05-25T15:45:40.637Z,41.30
2019-05-25T15:48:42.286Z,41.10
2019-05-25T15:51:43.894Z,41.20
2019-05-25T15:54:45.445Z,41.00
2019-05-25T15:57:47.067Z,41.10
2019-05-25T16:00:50.834Z,41.30
2019-05-25T16:03:52.541Z,41.90
2019-05-25T16:06:54.273Z,42.10
2019-05-25T16:09:55.870Z,42.50
2019-05-25T16:12:57.491Z,42.40
2019-05-25T16:15:59.045Z,42.00
2019-05-25T16:19:00.595Z,41.40
2019-05-25T16:22:02.134Z,41.40
2019-05-25T16:25:03.771Z,41.40
2019-05-25T16:28:05.303Z,40.90
2019-05-25T16:31:06.824Z,40.90
2019-05-25T16:34:08.382Z,41.40
2019-05-25T16:37:10.152Z,41.80
2019-05-25T16:40:12.804Z,42.20
2019-05-25T16:43:14.395Z,41.90
2019-05-25T16:46:15.911Z,41.70
2019-05-25T16:49:17.508Z,41.70
2019-05-25T16:52:19.039Z,42.00
2019-05-25T16:55:20.568Z,42.20
2019-05-25T16:58:22.153Z,42.20
2019-05-25T17:01:23.691Z,42.20
2019-05-25T17:04:25.273Z,42.00
2019-05-25T17:07:26.957Z,41.80
2019-05-25T17:10:28.664Z,41.40
2019-05-25T17:13:30.232Z,41.10
2019-05-25T17:16:31.767Z,40.80
2019-05-25T17:19:33.286Z,41.10
2019-05-25T17:22:34.775Z,41.00
2019-05-25T17:25:36.436Z,41.50
2019-05-25T17:28:37.963Z,41.70
2019-05-25T17:31:39.482Z,42.20
2019-05-25T17:34:42.113Z,42.50
2019-05-25T17:37:43.725Z,42.70
2019-05-25T17:40:45.333Z,42.70
2019-05-25T17:43:46.996Z,42.30
2019-05-25T17:46:48.569Z,42.40
2019-05-25T17:49:50.190Z,42.60
2019-05-25T17:52:51.739Z,42.20
2019-05-25T17:55:53.329Z,42.00
2019-05-25T17:58:54.919Z,42.20
2019-05-25T18:01:56.541Z,42.70
2019-05-25T18:04:58.147Z,43.20
2019-05-25T18:07:59.703Z,44.00
2019-05-25T18:11:01.297Z,44.50
2019-05-25T18:14:02.841Z,44.80
2019-05-25T18:17:04.415Z,45.20
2019-05-25T18:20:07.117Z,44.90
2019-05-25T18:23:08.697Z,44.30
2019-05-25T18:26:10.325Z,43.80
2019-05-25T18:29:11.880Z,43.10
2019-05-25T18:32:13.426Z,42.50
2019-05-25T18:35:15.060Z,42.60
2019-05-25T18:38:16.579Z,42.40
2019-05-25T18:41:18.109Z,41.90
2019-05-25T18:44:19.676Z,41.70
2019-05-25T18:47:21.202Z,41.50
2019-05-25T18:50:23.238Z,40.80
2019-05-25T18:53:24.762Z,41.30
2019-05-25T18:56:26.304Z,41.90
2019-05-25T18:59:27.876Z,42.40
2019-05-25T19:02:29.412Z,43.40
2019-05-25T19:05:31.059Z,44.10
2019-05-25T19:08:32.683Z,45.00
2019-05-25T19:11:35.907Z,45.50
2019-05-25T19:14:37.755Z,46.20
2019-05-25T19:17:39.323Z,46.50
2019-05-25T19:20:40.884Z,46.40
2019-05-25T19:23:42.352Z,46.60
2019-05-25T19:26:43.913Z,46.80
2019-05-25T19:29:45.477Z,47.20
2019-05-25T19:32:47.012Z,47.50
2019-05-25T19:35:48.597Z,47.70
2019-05-25T19:38:56.514Z,47.70
2019-05-25T19:41:59.757Z,48.00
2019-05-25T19:45:01.286Z,48.20
2019-05-25T19:48:02.913Z,48.30
2019-05-25T19:51:04.456Z,48.60
2019-05-25T19:54:07.108Z,48.80
2019-05-25T19:57:08.627Z,48.80
2019-05-25T20:00:12.118Z,49.00
2019-05-25T20:03:13.651Z,49.80
2019-05-25T20:06:15.220Z,50.00
2019-05-25T20:09:16.754Z,50.10
2019-05-25T20:12:18.281Z,50.40
2019-05-25T20:15:19.997Z,50.80
2019-05-25T20:18:21.501Z,51.10
2019-05-25T20:21:23.033Z,51.20
2019-05-25T20:24:24.548Z,51.30
2019-05-25T20:27:26.060Z,51.40
2019-05-25T20:30:28.790Z,51.40
2019-05-25T20:33:34.482Z,51.30
2019-05-25T20:36:33.679Z,51.70
2019-05-25T20:39:35.217Z,51.80
2019-05-25T20:42:36.825Z,52.00
2019-05-25T20:45:38.347Z,52.60
2019-05-25T20:48:40.978Z,53.10
2019-05-25T20:51:42.661Z,53.60
2019-05-25T20:54:44.281Z,54.10
2019-05-25T20:57:45.924Z,54.50
2019-05-25T21:00:47.418Z,54.20
2019-05-25T21:03:50.069Z,54.20
2019-05-25T21:06:52.680Z,54.10
2019-05-25T21:09:54.177Z,53.90
2019-05-25T21:12:55.834Z,53.80
2019-05-25T21:15:57.455Z,54.00
2019-05-25T21:19:02.346Z,53.80
2019-05-25T21:22:02.313Z,53.20
2019-05-25T21:25:05.817Z,53.00
2019-05-25T21:28:07.070Z,53.30
2019-05-25T21:31:08.600Z,53.40
2019-05-25T21:34:10.150Z,53.30
2019-05-25T21:37:11.684Z,53.80
2019-05-25T21:40:13.691Z,54.10
2019-05-25T21:43:15.202Z,54.10
2019-05-25T21:46:16.752Z,54.30
2019-05-25T21:49:18.353Z,55.30
2019-05-25T21:52:19.916Z,54.90
2019-05-25T21:55:21.438Z,55.00
2019-05-25T21:58:23.047Z,55.00
2019-05-25T22:01:24.725Z,54.70
2019-05-25T22:04:26.346Z,54.50
2019-05-25T22:07:27.890Z,54.40
2019-05-25T22:10:29.517Z,54.50
2019-05-25T22:13:31.079Z,55.00
2019-05-25T22:16:32.601Z,55.10
2019-05-25T22:19:34.168Z,55.30
2019-05-25T22:22:35.746Z,56.10
2019-05-25T22:25:37.308Z,55.70
2019-05-25T22:28:44.714Z,55.70
2019-05-25T22:31:42.131Z,55.80
2019-05-25T22:34:43.795Z,55.90
2019-05-25T22:37:45.395Z,56.40
2019-05-25T22:40:46.953Z,56.40
2019-05-25T22:43:48.478Z,57.10
2019-05-25T22:46:50.025Z,57.10
2019-05-25T22:49:51.689Z,56.90
2019-05-25T22:52:53.262Z,57.00
2019-05-25T22:55:54.786Z,57.40
2019-05-25T22:58:56.326Z,57.30
2019-05-25T23:01:57.851Z,57.30
2019-05-25T23:04:59.429Z,57.70
2019-05-25T23:08:00.978Z,58.40
2019-05-25T23:11:02.617Z,58.70
2019-05-25T23:14:04.251Z,58.30
2019-05-25T23:17:05.924Z,58.50
2019-05-25T23:20:07.992Z,58.60
2019-05-25T23:23:09.555Z,58.60
2019-05-25T23:26:11.078Z,59.20
2019-05-25T23:29:12.679Z,59.40
2019-05-25T23:32:14.309Z,59.50
2019-05-25T23:35:16.106Z,59.40
2019-05-25T23:38:20.687Z,59.40
2019-05-25T23:41:22.222Z,59.90
2019-05-25T23:44:23.755Z,59.90
2019-05-25T23:47:25.355Z,59.60
2019-05-25T23:50:26.969Z,59.70
2019-05-25T23:53:28.517Z,60.00
2019-05-25T23:56:30.085Z,60.50
2019-05-25T23:59:31.624Z,60.60
